Auk-Alfa, Netherlands

12:33 PM CEST on September 19, 2014 (GMT +0200)
Ekofisk | Change Station
CLOSE
Current Station
Airport
Location: Ekofisk,
Elevation: 10 ft
Nearby Weather Stations

Elev 10 ft 56.55 °N, 3.25 °E | Updated 13 minutes ago

Scattered Clouds
Scattered Clouds
59 °F
Feels Like 59 °F
N
21
Wind Variable Wind from East

Today
High -- | Low -- °F
--% Chance of Precip.
Yesterday
High -- | Low -- °F
Precip. -- in
7:30 AM 7:59 PM
Waning Crescent, 20% visible
Pressure 29.95 in
Visibility 4.3 miles
Clouds Few 800 ft
Scattered Clouds 20000 ft
Dew Point 59 °F
Humidity 100%
Rainfall 0.00 in
Snow Depth Not available.
UV 3 out of 12
Pollen Not available.
Air Quality Not available.
Flu Activity Not available.
METAR ENEK 191020Z 09018KT 7000 FEW008 SCT200 15/15 Q1014 W16/S3

More Conditions Fewer Conditions

Pressure 29.95 in
Visibility 4.3 miles
Clouds Few 800 ft
Scattered Clouds 20000 ft
Dew Point 59 °F
Humidity 100%
Rainfall 0.00 in
Snow Depth Not available.
UV 3 out of 12
Pollen Not available.
Air Quality Not available.
Flu Activity Not available.
METAR ENEK 191020Z 09018KT 7000 FEW008 SCT200 15/15 Q1014 W16/S3

More Conditions Fewer Conditions

10-Day Weather Forecast

Almanac

Astronomy

Sep. 19, 2014 Rise Set
Actual Time 7:30 AM CEST 7:59 PM CEST
Civil Twilight 6:52 AM CEST 8:36 PM CEST
Nautical Twilight 6:07 AM CEST 9:22 PM CEST
Astronomical Twilight 5:18 AM CEST 10:10 PM CEST
Moon 2:22 AM CEST 5:53 PM CEST
Length of Visible Light 13h 44m
Length of Day
12h 28m
Tomorrow will be 4m 42s shorter.
Waning Crescent, 20% of the Moon is Illuminated
Today
Waning Crescent
Sep 24
New
Oct 1
First Quarter
Oct 8
Full
Oct 15
Last Quarter

Yesterday's Extremes

Country Highs Country Lows

Community

WunderPhotos

Upload Photos

1,754,585 photos uploaded!

Nearby

Snow Depth

Not available.

Earthquake Activity

City Distance Mag. Time & Date
No recent earthquake activity has been reported nearby.
Minimum magnitude displayed is 2.5.

Coastal Water Temperatures

Place Temperature
No Stations Reporting

Nearby Weather Stations